Time;durP1;ratioP1;P1;durP2;ratioP2;P2;SDS_P1;SDS_P2;PMS_P1;PMS_P2;Temp;Humidity;BMP_temperature;BMP_pressure;BME280_temperature;BME280_humidity;BME280_pressure;Samples;Min_cycle;Max_cycle;Signal;HPM_P1;HPM_P2
2023/10/01 00:00:12;;;;;;;10.70;3.57;;;23.50;58.30;;;;;;6042703;23;89224;-81
2023/10/01 00:02:39;;;;;;;7.63;3.28;;;23.50;58.40;;;;;;6068944;23;88850;-81
2023/10/01 00:05:06;;;;;;;3.17;2.58;;;23.50;58.40;;;;;;6068908;23;87417;-83
2023/10/01 00:07:37;;;;;;;3.97;2.42;;;23.50;58.40;;;;;;6068193;23;88212;-81
2023/10/01 00:10:10;;;;;;;3.85;2.90;;;23.50;58.50;;;;;;6070828;23;87386;-81
2023/10/01 00:12:44;;;;;;;3.67;3.00;;;23.50;58.40;;;;;;6070036;23;87810;-81
2023/10/01 00:15:12;;;;;;;4.05;3.13;;;23.50;58.60;;;;;;6069320;23;87440;-82
2023/10/01 00:17:51;;;;;;;4.70;3.13;;;23.50;58.50;;;;;;6069925;23;87139;-81
2023/10/01 00:20:22;;;;;;;3.73;2.67;;;23.40;58.50;;;;;;6070151;23;92527;-81
2023/10/01 00:22:54;;;;;;;4.95;2.90;;;23.40;58.40;;;;;;6067015;23;89560;-81
2023/10/01 00:25:22;;;;;;;3.45;2.85;;;23.40;58.60;;;;;;6049844;23;88175;-83
2023/10/01 00:27:50;;;;;;;4.00;2.72;;;23.40;58.50;;;;;;6040945;23;87134;-81
2023/10/01 00:30:16;;;;;;;5.72;3.03;;;23.40;58.60;;;;;;6045127;23;90071;-81
2023/10/01 00:32:45;;;;;;;3.55;3.10;;;23.40;58.50;;;;;;6070627;23;89892;-81
2023/10/01 00:35:11;;;;;;;2.92;2.63;;;23.40;58.50;;;;;;6070645;23;87463;-81
2023/10/01 00:37:37;;;;;;;4.38;2.92;;;23.30;58.40;;;;;;6044746;23;87584;-81
2023/10/01 00:40:05;;;;;;;3.47;2.80;;;23.30;58.50;;;;;;6050829;23;87219;-80
2023/10/01 00:42:33;;;;;;;3.75;2.90;;;23.30;58.50;;;;;;6067863;23;88612;-81
2023/10/01 00:44:59;;;;;;;4.15;2.83;;;23.30;58.70;;;;;;6069841;23;87180;-80
2023/10/01 00:47:30;;;;;;;3.38;2.90;;;23.30;58.60;;;;;;6068468;23;88061;-81
2023/10/01 00:49:58;;;;;;;3.60;2.95;;;23.30;58.50;;;;;;6067885;23;90436;-82
2023/10/01 00:52:24;;;;;;;4.30;2.77;;;23.30;58.60;;;;;;6050300;23;89118;-81
2023/10/01 00:54:54;;;;;;;3.85;2.85;;;23.30;58.60;;;;;;6072823;23;86838;-81
2023/10/01 00:57:21;;;;;;;2.88;2.58;;;23.30;58.60;;;;;;6066951;23;87301;-81
2023/10/01 01:00:06;;;;;;;3.78;2.88;;;23.30;58.60;;;;;;6069953;23;87598;-81
2023/10/01 01:02:37;;;;;;;4.05;2.78;;;23.20;58.50;;;;;;6071364;23;87970;-82
2023/10/01 01:05:19;;;;;;;3.67;2.65;;;23.20;58.60;;;;;;6069936;23;88498;-82
2023/10/01 01:07:47;;;;;;;2.85;2.47;;;23.20;58.60;;;;;;6068271;23;89574;-82
2023/10/01 01:10:18;;;;;;;3.20;2.50;;;23.20;58.60;;;;;;6067749;23;90899;-82
2023/10/01 01:12:45;;;;;;;3.05;2.63;;;23.20;58.70;;;;;;6070524;23;88215;-81
2023/10/01 01:15:15;;;;;;;4.10;2.95;;;23.20;58.50;;;;;;6069808;23;87924;-81
2023/10/01 01:17:41;;;;;;;3.17;2.38;;;23.20;58.60;;;;;;6070773;23;87255;-81
2023/10/01 01:20:09;;;;;;;3.22;2.75;;;23.20;58.60;;;;;;6070472;23;88614;-81
2023/10/01 01:22:37;;;;;;;3.87;2.80;;;23.20;58.60;;;;;;6071051;23;87808;-82
2023/10/01 01:25:10;;;;;;;2.83;2.20;;;23.20;58.60;;;;;;6070219;23;87663;-81
2023/10/01 01:27:37;;;;;;;4.72;2.75;;;23.10;58.60;;;;;;6071239;23;87235;-83
2023/10/01 01:30:17;;;;;;;3.45;2.60;;;23.20;58.60;;;;;;6070884;23;87590;-81
2023/10/01 01:32:42;;;;;;;3.22;2.70;;;23.10;58.70;;;;;;6071867;23;87738;-81
2023/10/01 01:35:10;;;;;;;2.88;2.30;;;23.10;58.70;;;;;;6070136;23;86990;-80
2023/10/01 01:37:48;;;;;;;3.15;2.65;;;23.10;58.70;;;;;;6070093;23;88806;-80
2023/10/01 01:40:24;;;;;;;3.35;2.70;;;23.10;58.80;;;;;;6053674;23;88201;-80
2023/10/01 01:42:56;;;;;;;2.85;2.33;;;23.10;58.80;;;;;;6071612;23;87824;-81
2023/10/01 01:45:32;;;;;;;3.15;2.40;;;23.10;58.70;;;;;;6069802;23;87261;-81
2023/10/01 01:48:00;;;;;;;3.50;2.70;;;23.10;58.80;;;;;;6068533;23;87581;-80
2023/10/01 01:50:27;;;;;;;2.80;2.40;;;23.10;58.60;;;;;;6043292;23;87461;-80
2023/10/01 01:52:56;;;;;;;3.38;2.72;;;23.10;58.80;;;;;;6060683;23;87897;-81
2023/10/01 01:55:26;;;;;;;3.90;2.63;;;23.00;58.80;;;;;;6069265;23;86988;-82
2023/10/01 01:58:06;;;;;;;3.10;2.53;;;23.00;58.70;;;;;;6056900;23;86514;-81
2023/10/01 02:00:34;;;;;;;3.72;2.38;;;23.00;58.90;;;;;;6044591;23;88416;-80
2023/10/01 02:03:14;;;;;;;7.30;2.93;;;23.00;58.80;;;;;;6067515;23;88135;-80
2023/10/01 02:05:41;;;;;;;2.47;2.08;;;23.00;58.80;;;;;;6057956;23;87756;-81
2023/10/01 02:08:25;;;;;;;2.30;2.00;;;23.00;58.70;;;;;;6068445;23;87001;-81
2023/10/01 02:10:52;;;;;;;3.05;2.30;;;23.00;58.80;;;;;;6067253;23;90754;-80
2023/10/01 02:13:18;;;;;;;3.60;2.83;;;23.00;58.70;;;;;;6049644;23;87307;-81
2023/10/01 02:15:45;;;;;;;3.45;2.47;;;23.00;58.80;;;;;;6045588;23;86903;-81
2023/10/01 02:18:16;;;;;;;3.90;2.60;;;23.00;58.70;;;;;;6068328;23;86825;-83
2023/10/01 02:20:51;;;;;;;3.47;2.50;;;23.00;58.70;;;;;;6055959;23;90001;-81
2023/10/01 02:23:25;;;;;;;3.60;2.67;;;23.00;58.70;;;;;;6068235;23;92618;-81
2023/10/01 02:25:52;;;;;;;3.10;2.28;;;23.00;58.80;;;;;;6067220;23;87473;-82
2023/10/01 02:28:18;;;;;;;3.47;2.60;;;23.00;58.80;;;;;;6049679;23;87326;-81
2023/10/01 02:30:45;;;;;;;2.55;2.30;;;23.00;58.70;;;;;;6045801;23;89345;-81
2023/10/01 02:33:17;;;;;;;3.28;2.30;;;23.00;58.70;;;;;;6041688;23;89503;-81
2023/10/01 02:35:46;;;;;;;3.00;2.33;;;23.00;58.70;;;;;;6057813;23;87117;-80
2023/10/01 02:40:58;;;;;;;2.97;2.53;;;22.90;58.70;;;;;;6069891;23;87180;-82
2023/10/01 02:43:34;;;;;;;2.53;2.03;;;22.90;58.80;;;;;;6070073;23;87810;-80
2023/10/01 02:46:07;;;;;;;2.78;2.58;;;22.90;58.70;;;;;;6067997;23;87030;-81
2023/10/01 02:48:34;;;;;;;2.20;2.00;;;22.90;58.70;;;;;;6067600;23;87753;-81
2023/10/01 02:51:16;;;;;;;2.42;2.03;;;22.90;58.60;;;;;;6069147;23;87544;-81
2023/10/01 02:54:03;;;;;;;3.58;2.60;;;22.90;58.60;;;;;;6068185;23;91998;-81
2023/10/01 02:56:52;;;;;;;2.55;2.17;;;22.90;58.60;;;;;;6069552;23;88406;-81
2023/10/01 02:59:21;;;;;;;2.78;2.30;;;22.90;58.80;;;;;;6069677;23;91185;-81
2023/10/01 03:01:47;;;;;;;;;;;22.80;58.70;;;;;;6042449;23;93645;-81
2023/10/01 03:04:16;;;;;;;2.85;2.40;;;22.90;58.60;;;;;;6054358;23;87184;-82
2023/10/01 03:06:47;;;;;;;;;;;22.90;58.80;;;;;;6071607;23;86905;-81
2023/10/01 03:09:29;;;;;;;1.98;1.77;;;22.80;58.70;;;;;;6069337;23;87404;-81
2023/10/01 03:12:23;;;;;;;2.30;2.10;;;22.80;58.70;;;;;;6050833;23;88994;-81
2023/10/01 03:14:43;;;;;;;3.17;2.30;;;22.90;59.50;;;;;;6070275;23;87424;-80
2023/10/01 03:17:17;;;;;;;3.03;2.27;;;22.80;58.80;;;;;;6069002;23;87272;-81
2023/10/01 03:19:47;;;;;;;3.42;2.50;;;22.80;58.70;;;;;;6043116;23;88126;-81
2023/10/01 03:22:23;;;;;;;3.05;2.30;;;22.80;59.40;;;;;;6055988;23;92547;-80
2023/10/01 03:24:50;;;;;;;2.97;2.38;;;22.80;58.70;;;;;;6054523;23;88742;-81
2023/10/01 03:27:27;;;;;;;2.97;2.25;;;22.80;58.80;;;;;;6040654;23;87320;-81
2023/10/01 03:30:00;;;;;;;2.72;2.25;;;22.80;58.70;;;;;;6069519;23;87271;-80
2023/10/01 03:32:28;;;;;;;3.13;2.30;;;22.80;58.80;;;;;;6070188;23;87777;-81
2023/10/01 03:34:55;;;;;;;2.65;2.17;;;22.80;58.80;;;;;;6067514;23;88864;-81
2023/10/01 03:37:26;;;;;;;2.85;2.50;;;22.80;58.90;;;;;;6068750;23;87042;-81
2023/10/01 03:39:53;;;;;;;2.53;2.10;;;22.80;58.80;;;;;;6068501;23;87513;-80
2023/10/01 03:42:19;;;;;;;2.67;2.28;;;22.80;58.70;;;;;;6067923;23;88343;-82
2023/10/01 03:47:34;;;;;;;3.22;2.65;;;22.80;58.70;;;;;;6070268;23;88507;-81
2023/10/01 03:50:00;;;;;;;2.60;2.25;;;22.80;58.80;;;;;;6068191;23;88255;-81
2023/10/01 03:52:39;;;;;;;2.33;2.08;;;22.80;58.80;;;;;;6067086;23;90835;-82
2023/10/01 03:55:25;;;;;;;;;;;22.80;58.80;;;;;;6070787;23;87289;-81
2023/10/01 03:58:07;;;;;;;3.35;2.08;;;22.80;59.00;;;;;;6071753;23;87353;-81
2023/10/01 04:00:41;;;;;;;3.22;2.05;;;22.70;58.80;;;;;;6070042;23;87342;-82
2023/10/01 04:03:13;;;;;;;3.70;2.47;;;22.70;58.80;;;;;;6067785;23;90491;-82
2023/10/01 04:05:44;;;;;;;4.28;2.40;;;22.70;58.80;;;;;;6071465;23;87878;-81
2023/10/01 04:08:17;;;;;;;2.25;1.92;;;22.70;58.80;;;;;;6069017;23;86905;-80
2023/10/01 04:10:48;;;;;;;2.10;1.90;;;22.80;58.80;;;;;;6068224;23;87555;-81
2023/10/01 04:13:20;;;;;;;3.42;2.75;;;22.70;58.70;;;;;;6073125;23;89104;-81
2023/10/01 04:16:07;;;;;;;2.67;2.25;;;22.70;58.70;;;;;;6066782;23;91697;-81
2023/10/01 04:18:35;;;;;;;2.42;2.08;;;22.70;58.80;;;;;;6067731;23;86917;-81
2023/10/01 04:23:32;;;;;;;2.33;2.13;;;22.70;58.70;;;;;;6041595;23;86816;-80
2023/10/01 04:26:06;;;;;;;2.25;2.00;;;22.70;58.80;;;;;;6061671;23;87738;-81
2023/10/01 04:28:35;;;;;;;2.60;2.08;;;22.70;59.00;;;;;;6070233;23;87311;-81
2023/10/01 04:31:03;;;;;;;2.42;1.98;;;22.70;58.80;;;;;;6068093;23;87366;-82
2023/10/01 04:33:30;;;;;;;2.43;1.63;;;22.60;58.70;;;;;;6060581;23;89049;-81
2023/10/01 04:35:55;;;;;;;2.83;2.33;;;22.60;58.80;;;;;;6040197;23;89698;-82
2023/10/01 04:38:22;;;;;;;3.20;2.42;;;22.70;58.80;;;;;;6040401;23;88482;-80
2023/10/01 04:40:49;;;;;;;2.60;2.20;;;22.70;58.80;;;;;;6067652;23;87083;-80
2023/10/01 04:43:21;;;;;;;4.03;2.03;;;22.70;58.90;;;;;;6050807;23;87051;-82
2023/10/01 04:45:52;;;;;;;2.58;2.30;;;22.70;58.90;;;;;;6047045;23;95205;-81
2023/10/01 04:48:22;;;;;;;2.20;1.73;;;22.70;58.70;;;;;;6068493;23;87470;-82
2023/10/01 04:50:50;;;;;;;2.28;2.00;;;22.70;58.90;;;;;;6069244;23;86930;-81
2023/10/01 04:53:23;;;;;;;2.30;2.10;;;22.70;58.80;;;;;;6043817;23;89659;-81
2023/10/01 04:56:05;;;;;;;3.03;2.35;;;22.60;58.80;;;;;;6043698;23;88277;-81
2023/10/01 04:58:36;;;;;;;2.20;2.00;;;22.60;58.70;;;;;;6043287;23;86991;-80
2023/10/01 05:01:11;;;;;;;2.47;2.08;;;22.60;58.80;;;;;;6069834;23;87223;-81
2023/10/01 05:03:41;;;;;;;3.13;1.95;;;22.60;58.70;;;;;;6067625;23;88721;-80
2023/10/01 05:06:19;;;;;;;4.72;2.30;;;22.60;58.80;;;;;;6069431;23;88743;-81
2023/10/01 05:08:49;;;;;;;2.50;1.95;;;22.60;58.60;;;;;;6068267;23;87473;-80
2023/10/01 05:11:21;;;;;;;1.75;1.55;;;22.60;58.70;;;;;;6044940;23;89267;-81
2023/10/01 05:13:58;;;;;;;2.25;2.00;;;22.60;58.70;;;;;;6069632;23;87045;-80
2023/10/01 05:16:28;;;;;;;2.88;1.77;;;22.60;58.70;;;;;;6042259;23;87970;-81
2023/10/01 05:19:09;;;;;;;2.45;2.13;;;22.60;58.70;;;;;;6042883;23;87648;-81
2023/10/01 05:21:46;;;;;;;2.35;2.15;;;22.60;58.70;;;;;;6042947;23;90234;-81
2023/10/01 05:24:16;;;;;;;2.67;1.92;;;22.60;58.70;;;;;;6065405;23;90237;-81
2023/10/01 05:26:43;;;;;;;2.08;1.73;;;22.60;58.80;;;;;;6067636;23;90622;-81
2023/10/01 05:29:13;;;;;;;2.53;2.10;;;22.60;58.70;;;;;;6039373;23;88295;-80
2023/10/01 05:31:40;;;;;;;2.70;1.65;;;22.60;58.70;;;;;;6056876;23;87300;-80
2023/10/01 05:34:06;;;;;;;2.17;1.70;;;22.60;58.60;;;;;;6031642;23;90024;-81
2023/10/01 05:36:32;;;;;;;2.30;2.03;;;22.60;58.80;;;;;;6040122;23;87781;-81
2023/10/01 05:39:00;;;;;;;2.83;2.40;;;22.60;58.70;;;;;;6037727;23;86823;-80
2023/10/01 05:41:32;;;;;;;3.53;2.28;;;22.60;58.70;;;;;;6063518;23;87861;-81
2023/10/01 05:44:01;;;;;;;2.63;1.83;;;22.60;58.60;;;;;;6039775;23;88158;-81
2023/10/01 05:46:28;;;;;;;2.92;1.95;;;22.60;59.20;;;;;;6038057;23;90850;-81
2023/10/01 05:49:00;;;;;;;2.20;2.00;;;22.60;59.60;;;;;;6038867;23;87010;-82
2023/10/01 05:51:45;;;;;;;2.85;2.05;;;22.60;58.60;;;;;;6040025;23;86940;-80
2023/10/01 05:54:18;;;;;;;2.30;1.88;;;22.60;58.60;;;;;;6036462;23;90321;-80
2023/10/01 05:56:48;;;;;;;2.80;2.05;;;22.50;58.60;;;;;;6037888;23;89508;-81
2023/10/01 05:59:20;;;;;;;2.70;2.20;;;22.60;58.70;;;;;;6038895;23;86904;-81
2023/10/01 06:01:48;;;;;;;2.28;1.92;;;22.50;58.90;;;;;;6038762;23;87134;-80
2023/10/01 06:04:17;;;;;;;2.58;2.00;;;22.60;58.60;;;;;;6061584;23;91735;-81
2023/10/01 06:06:45;;;;;;;2.20;1.85;;;22.60;58.70;;;;;;6039783;23;88028;-81
2023/10/01 06:09:14;;;;;;;2.47;1.80;;;22.50;58.70;;;;;;6036871;23;87036;-81
2023/10/01 06:12:00;;;;;;;;;;;22.50;58.70;;;;;;6041664;23;86494;-81
2023/10/01 06:14:41;;;;;;;2.97;2.33;;;22.60;58.70;;;;;;6060705;23;95821;-82
2023/10/01 06:17:10;;;;;;;2.33;1.95;;;22.60;58.60;;;;;;6069389;23;87567;-81
2023/10/01 06:19:38;;;;;;;3.27;2.27;;;22.60;58.60;;;;;;6069118;23;88397;-82
2023/10/01 06:22:13;;;;;;;2.53;1.83;;;22.50;58.60;;;;;;6092646;23;87212;-83
2023/10/01 06:24:43;;;;;;;2.40;2.03;;;22.50;58.10;;;;;;6070719;23;88214;-80
2023/10/01 06:27:13;;;;;;;2.90;2.08;;;22.50;58.20;;;;;;6067194;23;89493;-81
2023/10/01 06:29:49;;;;;;;2.97;2.05;;;22.50;57.80;;;;;;6070573;23;87314;-80
2023/10/01 06:32:26;;;;;;;3.22;2.20;;;22.50;57.40;;;;;;6041096;23;91475;-81
2023/10/01 06:34:57;;;;;;;5.93;2.72;;;22.60;57.40;;;;;;6038769;23;89619;-85
2023/10/01 06:37:25;;;;;;;5.60;2.45;;;22.60;57.00;;;;;;6044609;23;87476;-81
2023/10/01 06:39:51;;;;;;;5.33;2.77;;;22.60;57.10;;;;;;6037505;23;87171;-81
2023/10/01 06:42:20;;;;;;;4.13;2.83;;;22.60;57.10;;;;;;6038589;23;87749;-79
2023/10/01 06:44:50;;;;;;;5.47;3.03;;;22.60;57.50;;;;;;6039022;23;88248;-81
2023/10/01 06:47:22;;;;;;;13.52;4.85;;;22.60;57.50;;;;;;6037234;23;91512;-81
2023/10/01 06:52:35;;;;;;;25.90;6.93;;;22.60;56.90;;;;;;6036470;23;87248;-79
2023/10/01 06:55:01;;;;;;;36.17;7.43;;;22.60;56.90;;;;;;6035553;23;90625;-80
2023/10/01 06:57:31;;;;;;;29.55;7.20;;;22.70;56.70;;;;;;6034242;23;89824;-79
2023/10/01 06:59:57;;;;;;;;;;;22.70;56.90;;;;;;6038246;23;86799;-81
2023/10/01 07:02:28;;;;;;;44.75;9.52;;;22.70;56.80;;;;;;6039026;23;87632;-80
2023/10/01 07:04:58;;;;;;;44.80;11.25;;;22.70;56.70;;;;;;6036984;23;88569;-82
2023/10/01 07:07:31;;;;;;;43.97;10.65;;;22.70;56.60;;;;;;6033750;23;88801;-80
2023/10/01 07:09:57;;;;;;;42.35;9.27;;;22.70;56.50;;;;;;6036220;23;87827;-81
2023/10/01 07:12:24;;;;;;;23.00;6.82;;;22.80;56.70;;;;;;6042499;23;87682;-82
2023/10/01 07:14:51;;;;;;;18.48;4.93;;;22.70;57.10;;;;;;6066691;23;88593;-83
2023/10/01 07:17:23;;;;;;;15.18;4.90;;;22.80;57.70;;;;;;6039234;23;87411;-82
2023/10/01 07:20:18;;;;;;;18.45;5.60;;;22.80;58.00;;;;;;6081910;23;87396;-84
2023/10/01 07:22:44;;;;;;;15.05;5.22;;;22.80;58.00;;;;;;6061316;23;87518;-84
2023/10/01 07:25:28;;;;;;;17.20;4.70;;;22.80;58.00;;;;;;6049870;23;88278;-81
2023/10/01 07:27:55;;;;;;;10.70;5.13;;;22.80;57.90;;;;;;6047507;23;87226;-82
2023/10/01 07:30:39;;;;;;;13.65;4.53;;;22.90;58.00;;;;;;6033363;23;87505;-82
2023/10/01 07:33:28;;;;;;;12.30;4.72;;;22.90;58.00;;;;;;6036625;23;88726;-83
2023/10/01 07:36:01;;;;;;;24.40;6.13;;;22.90;58.00;;;;;;6057603;23;90119;-82
2023/10/01 07:38:46;;;;;;;17.23;5.53;;;22.90;58.10;;;;;;6070936;23;89287;-81
2023/10/01 07:41:16;;;;;;;12.85;4.75;;;22.90;58.00;;;;;;6044384;23;87177;-82
2023/10/01 07:43:42;;;;;;;;;;;22.90;58.20;;;;;;6069412;23;87340;-81
2023/10/01 07:46:08;;;;;;;23.92;8.55;;;22.90;58.00;;;;;;6094806;23;91453;-83
2023/10/01 07:48:47;;;;;;;120.88;40.75;;;22.80;58.20;;;;;;6068880;23;87743;-83
2023/10/01 07:51:30;;;;;;;131.40;47.05;;;22.90;58.20;;;;;;6068527;23;89388;-85
2023/10/01 07:54:09;;;;;;;129.65;44.67;;;22.90;58.10;;;;;;6044021;23;86949;-84
2023/10/01 07:56:51;;;;;;;;;;;22.90;58.00;;;;;;6073060;23;87264;-83
2023/10/01 07:59:28;;;;;;;78.10;28.63;;;22.80;57.80;;;;;;6048468;23;92168;-85
2023/10/01 08:07:18;;;;;;;77.72;26.25;;;22.80;57.90;;;;;;6071741;23;88870;-86
2023/10/01 08:09:51;;;;;;;74.32;26.40;;;22.90;57.70;;;;;;6045819;23;88029;-86
2023/10/01 08:17:47;;;;;;;69.55;24.65;;;22.80;58.00;;;;;;6070663;23;87196;-84
2023/10/01 08:20:21;;;;;;;55.88;22.52;;;22.80;58.00;;;;;;6069906;23;87338;-83
2023/10/01 08:25:42;;;;;;;61.17;21.33;;;22.90;58.10;;;;;;6075741;23;88231;-86
2023/10/01 08:30:43;;;;;;;51.85;18.63;;;22.90;58.30;;;;;;6071017;23;87619;-86
2023/10/01 08:33:32;;;;;;;44.53;19.60;;;22.90;58.20;;;;;;6043835;23;87158;-82
2023/10/01 08:36:12;;;;;;;;;;;22.90;58.30;;;;;;6043052;23;90260;-84
2023/10/01 08:39:20;;;;;;;42.38;17.65;;;22.80;58.30;;;;;;6072888;23;88140;-85
2023/10/01 08:41:50;;;;;;;51.25;17.83;;;22.90;58.30;;;;;;6073418;23;91899;-87
2023/10/01 08:44:20;;;;;;;47.50;17.58;;;22.90;58.40;;;;;;6070427;23;88132;-84
2023/10/01 08:46:47;;;;;;;47.63;18.52;;;22.90;58.60;;;;;;6070764;23;86658;-84
2023/10/01 08:49:23;;;;;;;44.75;18.30;;;22.90;58.80;;;;;;6069442;23;88691;-81
2023/10/01 08:51:53;;;;;;;49.90;17.45;;;22.90;58.80;;;;;;6042093;23;89296;-83
2023/10/01 08:54:29;;;;;;;41.25;15.73;;;22.90;59.00;;;;;;6044703;23;88373;-84
2023/10/01 08:56:57;;;;;;;37.85;15.05;;;22.90;59.00;;;;;;6066634;23;87258;-85
2023/10/01 08:59:23;;;;;;;39.40;15.55;;;22.90;59.80;;;;;;6046048;23;87544;-83
2023/10/01 09:01:52;;;;;;;39.35;15.75;;;22.90;59.20;;;;;;6070270;23;87318;-83
2023/10/01 09:04:44;;;;;;;33.60;13.90;;;22.90;59.20;;;;;;6070056;23;87406;-82
2023/10/01 09:07:19;;;;;;;37.15;15.15;;;22.90;59.40;;;;;;6067770;23;88271;-82
2023/10/01 09:10:09;;;;;;;36.85;14.60;;;22.90;59.50;;;;;;6069778;23;87464;-84
2023/10/01 09:12:45;;;;;;;34.35;14.20;;;22.90;59.70;;;;;;6069690;23;87759;-83
2023/10/01 09:15:27;;;;;;;31.98;13.93;;;22.90;59.90;;;;;;6069490;23;87184;-83
2023/10/01 09:17:56;;;;;;;31.95;14.90;;;22.90;59.70;;;;;;6041657;23;87477;-84
2023/10/01 09:23:56;;;;;;;27.23;13.07;;;22.90;59.90;;;;;;6071964;23;90708;-83
2023/10/01 09:26:55;;;;;;;25.70;10.82;;;22.90;60.10;;;;;;6043264;23;87039;-82
2023/10/01 09:29:23;;;;;;;33.90;13.48;;;22.90;60.50;;;;;;6042425;23;93008;-84
2023/10/01 09:31:56;;;;;;;33.25;13.00;;;22.90;60.60;;;;;;6068588;23;88662;-83
2023/10/01 09:34:31;;;;;;;36.67;15.38;;;22.90;60.70;;;;;;6042489;23;88050;-82
2023/10/01 09:37:01;;;;;;;33.38;13.68;;;22.90;60.90;;;;;;6038919;23;86843;-82
2023/10/01 09:39:41;;;;;;;36.55;16.55;;;22.90;60.90;;;;;;6042796;23;90736;-82
2023/10/01 09:42:24;;;;;;;34.63;14.77;;;22.90;60.90;;;;;;6068900;23;88322;-82
2023/10/01 09:44:53;;;;;;;29.17;14.10;;;22.90;61.00;;;;;;6070127;23;87508;-81
2023/10/01 09:47:27;;;;;;;28.45;14.45;;;23.00;60.90;;;;;;6044491;23;88168;-88
2023/10/01 09:49:54;;;;;;;29.08;13.43;;;22.90;60.70;;;;;;6043276;23;87796;-87
2023/10/01 09:52:27;;;;;;;29.70;13.88;;;23.00;61.00;;;;;;6019025;23;89196;-87
2023/10/01 09:55:07;;;;;;;29.83;13.13;;;23.00;61.00;;;;;;6044000;23;89501;-87
2023/10/01 09:57:34;;;;;;;25.08;12.63;;;23.00;61.00;;;;;;6059895;23;88980;-90
2023/10/01 10:00:17;;;;;;;24.85;11.85;;;23.00;61.20;;;;;;6036603;23;87909;-88
2023/10/01 10:02:51;;;;;;;28.30;12.75;;;23.00;61.00;;;;;;6067476;23;88854;-84
2023/10/01 10:05:26;;;;;;;28.63;12.77;;;23.00;61.00;;;;;;6072912;23;92122;-89
2023/10/01 10:07:53;;;;;;;23.65;10.77;;;23.00;61.10;;;;;;6057614;23;87403;-85
2023/10/01 10:10:24;;;;;;;26.17;12.25;;;23.00;61.20;;;;;;6047799;23;87367;-82
2023/10/01 10:12:56;;;;;;;20.52;9.55;;;23.00;61.10;;;;;;6059196;23;90898;-82
2023/10/01 10:16:01;;;;;;;20.10;9.93;;;23.00;59.80;;;;;;6058906;23;90378;-84
2023/10/01 10:18:32;;;;;;;22.05;10.55;;;23.00;59.60;;;;;;6060001;23;87404;-84
2023/10/01 10:21:05;;;;;;;25.20;8.95;;;23.00;59.70;;;;;;6061472;23;87656;-85
2023/10/01 10:23:52;;;;;;;20.08;9.88;;;23.00;59.60;;;;;;6067608;23;88147;-85
2023/10/01 10:29:46;;;;;;;25.25;10.05;;;23.00;61.30;;;;;;6067356;23;87212;-86
2023/10/01 10:32:16;;;;;;;20.15;10.13;;;23.00;61.20;;;;;;6042648;23;92002;-85
2023/10/01 10:35:03;;;;;;;23.52;9.98;;;23.00;61.10;;;;;;6043665;23;90121;-84
2023/10/01 10:37:39;;;;;;;20.73;10.02;;;23.00;61.30;;;;;;6068220;23;88119;-85
2023/10/01 10:42:58;;;;;;;23.10;9.77;;;23.00;61.10;;;;;;6067842;23;87629;-85
2023/10/01 10:45:26;;;;;;;24.17;10.43;;;23.00;61.20;;;;;;6065189;23;90582;-88
2023/10/01 10:48:00;;;;;;;23.30;9.93;;;23.00;61.30;;;;;;6041228;23;90306;-85
2023/10/01 10:50:50;;;;;;;18.15;7.63;;;23.10;61.40;;;;;;6045253;23;87270;-86
2023/10/01 10:53:21;;;;;;;20.38;8.52;;;23.00;59.80;;;;;;6046366;23;92340;-85
2023/10/01 10:56:02;;;;;;;16.15;8.10;;;23.00;59.50;;;;;;6044910;23;88111;-85
2023/10/01 10:58:31;;;;;;;14.18;7.15;;;23.00;59.30;;;;;;6059159;23;88642;-84
2023/10/01 11:01:16;;;;;;;17.90;8.23;;;23.00;61.10;;;;;;6068965;23;86923;-85
2023/10/01 11:04:08;;;;;;;14.18;8.57;;;23.00;60.00;;;;;;6071194;23;87334;-87
2023/10/01 11:06:42;;;;;;;13.10;7.40;;;23.00;59.60;;;;;;6093869;23;90735;-89
2023/10/01 11:11:51;;;;;;;16.77;8.32;;;23.10;59.60;;;;;;6075112;23;87137;-89
2023/10/01 11:14:18;;;;;;;13.68;7.00;;;23.00;59.50;;;;;;6073039;23;88063;-88
2023/10/01 11:16:48;;;;;;;15.05;7.05;;;23.10;59.10;;;;;;6048413;23;89505;-89
2023/10/01 11:19:17;;;;;;;17.60;7.72;;;23.10;59.50;;;;;;6034113;23;88457;-88
2023/10/01 11:22:00;;;;;;;13.40;6.97;;;23.00;59.30;;;;;;6043955;23;87586;-89
2023/10/01 11:24:32;;;;;;;14.75;7.35;;;23.10;59.40;;;;;;6049520;23;87356;-86
2023/10/01 11:27:24;;;;;;;14.93;8.23;;;23.10;59.60;;;;;;6067683;23;90266;-88
2023/10/01 11:29:58;;;;;;;13.82;6.45;;;23.10;59.90;;;;;;6068917;23;88229;-89
2023/10/01 11:36:07;;;;;;;13.27;6.50;;;23.10;60.00;;;;;;6070866;23;90120;-90
2023/10/01 11:38:35;;;;;;;13.75;7.40;;;23.10;60.10;;;;;;6070548;23;95868;-89
2023/10/01 11:41:13;;;;;;;12.45;7.05;;;23.10;60.10;;;;;;6069998;23;88644;-90
2023/10/01 11:43:58;;;;;;;11.63;6.95;;;23.10;60.10;;;;;;6080914;23;86885;-90
2023/10/01 11:46:29;;;;;;;18.00;7.90;;;23.10;60.10;;;;;;6072518;23;87298;-89
2023/10/01 11:49:10;;;;;;;15.05;7.55;;;23.10;60.10;;;;;;6069195;23;90490;-90
2023/10/01 11:52:01;;;;;;;13.90;7.97;;;23.10;60.20;;;;;;6061145;23;87245;-89
2023/10/01 11:54:43;;;;;;;13.23;7.53;;;23.10;60.20;;;;;;6049717;23;87485;-90
2023/10/01 11:57:22;;;;;;;14.55;6.82;;;23.10;60.20;;;;;;6072317;23;86776;-90
2023/10/01 11:59:58;;;;;;;15.97;7.53;;;23.10;60.30;;;;;;6071294;23;89632;-90
2023/10/01 12:02:25;;;;;;;15.90;7.95;;;23.10;60.10;;;;;;6070662;23;88447;-90
2023/10/01 12:05:00;;;;;;;13.27;6.95;;;23.10;60.40;;;;;;6072164;23;87362;-90
2023/10/01 12:07:45;;;;;;;13.00;7.20;;;23.10;60.30;;;;;;6069018;23;87495;-89
2023/10/01 12:10:31;;;;;;;11.80;7.28;;;23.20;60.10;;;;;;6053252;23;89069;-90
2023/10/01 12:12:58;;;;;;;15.55;7.65;;;23.20;60.30;;;;;;6055686;23;88565;-89
2023/10/01 12:18:13;;;;;;;14.20;7.07;;;23.20;60.10;;;;;;6073226;23;86330;-89
2023/10/01 12:20:50;;;;;;;14.60;7.28;;;23.20;60.30;;;;;;6072621;23;88630;-90
2023/10/01 12:23:36;;;;;;;15.55;7.75;;;23.20;60.00;;;;;;6070731;23;92723;-90
2023/10/01 12:28:30;;;;;;;13.60;7.18;;;23.20;60.10;;;;;;6072847;23;86841;-90
2023/10/01 12:31:02;;;;;;;14.60;7.60;;;23.20;60.00;;;;;;6055911;23;88718;-90
2023/10/01 12:33:38;;;;;;;14.63;6.88;;;23.20;60.20;;;;;;6049541;23;91348;-89
2023/10/01 12:44:27;;;;;;;13.48;7.50;;;23.20;60.10;;;;;;6073661;23;91964;-89
2023/10/01 12:47:01;;;;;;;12.57;7.13;;;23.20;60.20;;;;;;6071143;23;87253;-88
2023/10/01 12:49:34;;;;;;;14.35;8.32;;;23.20;60.30;;;;;;6070029;23;87654;-90
2023/10/01 12:52:01;;;;;;;14.80;7.53;;;23.20;60.30;;;;;;6068855;23;89750;-89
2023/10/01 12:54:27;;;;;;;13.20;7.03;;;23.20;60.50;;;;;;6069692;23;90628;-89
2023/10/01 12:57:05;;;;;;;13.80;7.55;;;23.20;60.40;;;;;;6069844;23;86902;-89
2023/10/01 12:59:39;;;;;;;15.15;7.50;;;23.20;60.50;;;;;;6070686;23;89627;-90
2023/10/01 13:02:22;;;;;;;12.60;6.95;;;23.20;60.20;;;;;;6069536;23;89427;-90
2023/10/01 13:07:41;;;;;;;13.65;7.88;;;23.20;60.30;;;;;;6072147;23;87370;-87
2023/10/01 13:10:08;;;;;;;12.60;6.63;;;23.20;60.40;;;;;;6069553;23;86789;-86
2023/10/01 13:15:29;;;;;;;11.95;6.75;;;23.20;59.70;;;;;;6072446;23;91979;-89
2023/10/01 13:18:03;;;;;;;12.25;6.90;;;23.20;59.50;;;;;;6069341;23;88311;-85
2023/10/01 13:20:30;;;;;;;15.30;7.53;;;23.20;59.70;;;;;;6072924;23;87911;-86
2023/10/01 13:23:05;;;;;;;13.73;7.03;;;23.20;59.70;;;;;;6071405;23;87945;-86
2023/10/01 13:25:46;;;;;;;13.45;7.00;;;23.20;59.90;;;;;;6069703;23;87081;-85
2023/10/01 13:28:43;;;;;;;17.15;6.55;;;23.20;59.70;;;;;;6064728;23;87294;-84
2023/10/01 13:31:04;;;;;;;12.95;7.13;;;23.20;59.90;;;;;;6073060;23;87060;-85
2023/10/01 13:33:53;;;;;;;14.77;6.70;;;23.20;60.20;;;;;;6071591;23;89158;-86
2023/10/01 13:36:23;;;;;;;13.10;7.15;;;23.30;59.90;;;;;;6070274;23;89040;-86
2023/10/01 13:39:15;;;;;;;13.88;7.35;;;23.30;59.90;;;;;;6069135;23;87277;-86
2023/10/01 14:09:09;;;;;;;13.52;7.57;;;23.30;59.60;;;;;;6071672;23;86968;-87
2023/10/01 14:11:39;;;;;;;13.75;7.82;;;23.40;59.60;;;;;;6071142;23;88252;-88
2023/10/01 14:14:07;;;;;;;25.70;8.00;;;23.40;59.70;;;;;;6046487;23;87581;-84
2023/10/01 14:16:33;;;;;;;16.92;7.32;;;23.40;60.70;;;;;;6069067;23;88135;-88
2023/10/01 14:19:13;;;;;;;22.38;7.90;;;23.40;59.80;;;;;;6071315;23;88619;-90
2023/10/01 14:21:40;;;;;;;19.15;8.00;;;23.40;59.90;;;;;;6069774;23;86984;-88
2023/10/01 14:24:22;;;;;;;17.48;7.57;;;23.40;59.90;;;;;;6064565;23;88847;-88
2023/10/01 14:26:50;;;;;;;22.67;8.25;;;23.40;60.50;;;;;;6038288;23;88802;-88
2023/10/01 14:29:34;;;;;;;15.90;7.30;;;23.50;60.50;;;;;;6043131;23;88965;-91
2023/10/01 14:32:10;;;;;;;15.93;7.78;;;23.50;60.30;;;;;;6013918;23;87203;-87
2023/10/01 14:34:41;;;;;;;15.05;7.18;;;23.50;60.70;;;;;;6065020;23;86950;-89
2023/10/01 14:37:07;;;;;;;23.23;8.98;;;23.50;60.70;;;;;;6070298;23;89470;-87
2023/10/01 14:39:33;;;;;;;21.10;8.02;;;23.50;61.20;;;;;;6067481;23;89470;-86
2023/10/01 14:41:59;;;;;;;26.80;9.20;;;23.60;62.40;;;;;;6063803;23;89476;-85